createdAt,value
2023-04-23T00:01:19.208Z,18.00
2023-04-23T00:03:48.609Z,18.00
2023-04-23T00:06:17.685Z,18.00
2023-04-23T00:08:44.982Z,17.90
2023-04-23T00:11:12.289Z,17.90
2023-04-23T00:13:39.692Z,17.90
2023-04-23T00:16:07.305Z,17.90
2023-04-23T00:23:29.219Z,17.80
2023-04-23T00:25:56.678Z,17.80
2023-04-23T00:30:51.149Z,17.80
2023-04-23T00:38:12.555Z,17.70
2023-04-23T00:40:39.672Z,17.70
2023-04-23T00:45:34.692Z,17.70
2023-04-23T00:48:03.057Z,17.70
2023-04-23T00:50:31.465Z,17.60
2023-04-23T00:52:59.062Z,17.60
2023-04-23T00:57:54.321Z,17.60
2023-04-23T01:00:21.717Z,17.60
2023-04-23T01:02:50.615Z,17.50
2023-04-23T01:05:18.231Z,17.50
2023-04-23T01:07:46.747Z,17.50
2023-04-23T01:15:10.087Z,17.40
2023-04-23T01:17:37.233Z,17.40
2023-04-23T01:20:06.566Z,17.40
2023-04-23T01:22:36.715Z,17.40
2023-04-23T01:25:04.771Z,17.40
2023-04-23T01:27:33.261Z,17.30
2023-04-23T01:30:03.749Z,17.30
2023-04-23T01:32:31.640Z,17.30
2023-04-23T01:34:58.990Z,17.20
2023-04-23T01:37:27.721Z,17.30
2023-04-23T01:39:54.715Z,17.20
2023-04-23T01:42:23.371Z,17.20
2023-04-23T01:44:52.300Z,17.20
2023-04-23T01:47:21.200Z,17.20
2023-04-23T01:54:43.021Z,17.10
2023-04-23T01:57:10.869Z,17.10
2023-04-23T02:02:05.743Z,17.10
2023-04-23T02:04:33.690Z,17.10
2023-04-23T02:09:28.244Z,17.00
2023-04-23T02:19:19.560Z,16.90
2023-04-23T02:24:13.576Z,16.90
2023-04-23T02:26:40.360Z,16.90
2023-04-23T02:43:54.539Z,16.80
2023-04-23T02:48:49.285Z,16.70
2023-04-23T02:51:17.354Z,16.70
2023-04-23T02:56:11.417Z,16.80
2023-04-23T03:01:06.101Z,16.70
2023-04-23T03:03:34.038Z,16.70
2023-04-23T03:06:03.487Z,16.70
2023-04-23T03:08:30.489Z,16.70
2023-04-23T03:10:57.307Z,16.70
2023-04-23T03:13:25.065Z,16.70
2023-04-23T03:15:52.836Z,16.70
2023-04-23T03:20:50.897Z,16.70
2023-04-23T03:23:18.324Z,16.80
2023-04-23T03:30:41.857Z,16.70
2023-04-23T03:48:37.251Z,16.70
2023-04-23T03:51:08.901Z,16.70
2023-04-23T03:56:41.657Z,16.70
2023-04-23T04:04:12.307Z,16.70
2023-04-23T04:16:30.229Z,16.70
2023-04-23T04:18:57.087Z,16.70
2023-04-23T04:28:46.432Z,16.70
2023-04-23T04:31:15.944Z,16.70
2023-04-23T04:36:10.215Z,16.70
2023-04-23T04:43:32.899Z,16.70
2023-04-23T04:48:27.579Z,16.70
2023-04-23T04:55:49.409Z,16.70
2023-04-23T05:00:44.502Z,16.70
2023-04-23T05:20:25.520Z,16.60
2023-04-23T05:35:09.391Z,16.50
2023-04-23T05:42:37.408Z,16.50
2023-04-23T05:52:33.424Z,16.50
2023-04-23T06:12:14.830Z,16.50
2023-04-23T06:17:09.516Z,16.50
2023-04-23T06:32:05.060Z,16.60
2023-04-23T06:39:26.790Z,16.60
2023-04-23T06:54:30.838Z,16.60
2023-04-23T06:59:25.074Z,16.50
2023-04-23T07:04:22.190Z,16.40
2023-04-23T07:14:11.152Z,16.60
2023-04-23T07:19:05.652Z,16.70
2023-04-23T07:24:00.806Z,16.70
2023-04-23T07:28:55.157Z,16.80
2023-04-23T07:46:08.652Z,16.90
2023-04-23T07:51:03.296Z,17.00
2023-04-23T08:00:52.897Z,17.10
2023-04-23T08:05:47.827Z,17.30
2023-04-23T08:15:36.989Z,17.30
2023-04-23T08:18:04.628Z,17.30
2023-04-23T08:20:32.457Z,17.40
2023-04-23T08:22:59.773Z,17.40
2023-04-23T08:32:55.614Z,17.40
2023-04-23T08:35:23.603Z,17.50
2023-04-23T08:45:13.734Z,17.70
2023-04-23T08:47:44.428Z,17.70
2023-04-23T08:50:17.866Z,17.80
2023-04-23T08:52:50.830Z,17.80
2023-04-23T08:55:18.918Z,17.90
2023-04-23T08:57:46.877Z,17.90
2023-04-23T09:00:17.231Z,18.00
2023-04-23T09:02:46.067Z,18.00
2023-04-23T09:05:13.964Z,18.10
2023-04-23T09:07:41.836Z,16.70
2023-04-23T09:10:11.385Z,18.20
2023-04-23T09:12:41.045Z,18.20
2023-04-23T09:15:12.770Z,18.30
2023-04-23T09:17:44.253Z,18.30
2023-04-23T09:20:12.677Z,18.40
2023-04-23T09:22:52.523Z,18.40
2023-04-23T09:25:21.101Z,18.50
2023-04-23T09:27:50.745Z,18.50
2023-04-23T09:30:18.391Z,18.50
2023-04-23T09:32:46.660Z,18.60
2023-04-23T09:35:16.434Z,18.70
2023-04-23T09:37:48.468Z,18.70
2023-04-23T09:40:17.793Z,18.80
2023-04-23T09:42:50.007Z,18.80
2023-04-23T09:45:17.332Z,19.00
2023-04-23T09:47:56.885Z,19.10
2023-04-23T09:50:38.374Z,19.10
2023-04-23T09:53:07.076Z,19.20
2023-04-23T09:55:40.779Z,19.20
2023-04-23T09:58:16.670Z,19.40
2023-04-23T10:00:43.632Z,15.40
2023-04-23T10:08:13.380Z,19.50
2023-04-23T10:10:56.790Z,19.60
2023-04-23T10:13:28.030Z,19.70
2023-04-23T10:15:59.089Z,19.70
2023-04-23T10:18:33.535Z,19.80
2023-04-23T10:21:02.690Z,19.80
2023-04-23T10:23:30.953Z,19.90
2023-04-23T10:26:01.455Z,19.90
2023-04-23T10:28:32.067Z,20.00
2023-04-23T10:31:00.714Z,20.00
2023-04-23T10:33:31.885Z,20.10
2023-04-23T10:36:02.973Z,20.20
2023-04-23T10:38:30.524Z,20.20
2023-04-23T10:41:01.386Z,20.20
2023-04-23T10:43:28.239Z,20.20
2023-04-23T10:45:55.300Z,20.30
2023-04-23T10:48:22.114Z,20.40
2023-04-23T10:51:09.485Z,20.40
2023-04-23T10:53:45.912Z,20.40
2023-04-23T10:56:12.790Z,20.50
2023-04-23T10:58:50.534Z,20.50
2023-04-23T11:01:18.658Z,20.60
2023-04-23T11:03:45.949Z,20.60
2023-04-23T11:06:17.335Z,20.70
2023-04-23T11:08:54.465Z,20.70
2023-04-23T11:11:39.956Z,20.70
2023-04-23T11:14:16.162Z,20.80
2023-04-23T11:16:43.326Z,20.80
2023-04-23T11:19:13.034Z,20.80
2023-04-23T11:22:00.075Z,20.80
2023-04-23T11:24:32.625Z,20.80
2023-04-23T11:27:00.374Z,20.90
2023-04-23T11:29:28.462Z,21.00
2023-04-23T11:34:26.268Z,21.00
2023-04-23T11:36:57.223Z,16.80
2023-04-23T11:39:24.737Z,21.10
2023-04-23T11:41:52.837Z,21.10
2023-04-23T11:44:21.425Z,21.20
2023-04-23T11:46:49.875Z,21.30
2023-04-23T11:49:21.933Z,21.30
2023-04-23T11:51:48.763Z,21.30
2023-04-23T11:54:16.338Z,21.30
2023-04-23T11:56:43.668Z,21.30
2023-04-23T11:59:10.575Z,21.40
2023-04-23T12:01:44.396Z,21.40
2023-04-23T12:04:15.550Z,21.40
2023-04-23T12:06:44.872Z,21.50
2023-04-23T12:09:13.263Z,21.60
2023-04-23T12:11:44.136Z,21.70
2023-04-23T12:14:12.901Z,21.70
2023-04-23T12:16:45.677Z,21.80
2023-04-23T12:19:22.019Z,21.80
2023-04-23T12:21:49.851Z,21.80
2023-04-23T12:24:17.221Z,21.90
2023-04-23T12:26:44.521Z,21.90
2023-04-23T12:29:13.679Z,21.90
2023-04-23T12:31:43.007Z,22.00
2023-04-23T12:34:10.932Z,21.90
2023-04-23T12:36:40.880Z,22.00
2023-04-23T12:39:19.735Z,22.00
2023-04-23T12:41:46.646Z,22.10
2023-04-23T12:44:13.729Z,22.10
2023-04-23T12:46:40.774Z,22.20
2023-04-23T12:49:07.678Z,22.20
2023-04-23T12:51:34.610Z,22.30
2023-04-23T12:54:01.517Z,22.30
2023-04-23T12:56:28.636Z,22.40
2023-04-23T12:58:55.546Z,22.50
2023-04-23T13:01:22.388Z,22.60
2023-04-23T13:03:49.374Z,22.60
2023-04-23T13:06:16.430Z,22.70
2023-04-23T13:08:43.444Z,22.90
2023-04-23T13:11:11.284Z,23.10
2023-04-23T13:13:38.140Z,23.40
2023-04-23T13:16:05.160Z,23.80
2023-04-23T13:18:32.056Z,24.10
2023-04-23T13:20:58.864Z,24.50
2023-04-23T13:23:26.524Z,24.90
2023-04-23T13:25:53.462Z,25.30
2023-04-23T13:28:20.804Z,25.60
2023-04-23T13:30:47.615Z,26.00
2023-04-23T13:33:14.875Z,24.60
2023-04-23T13:35:41.834Z,26.60
2023-04-23T13:38:08.661Z,26.90
2023-04-23T13:40:36.234Z,27.10
2023-04-23T13:43:03.079Z,27.20
2023-04-23T13:45:29.963Z,27.30
2023-04-23T13:47:56.871Z,27.30
2023-04-23T13:50:24.004Z,27.20
2023-04-23T13:52:50.930Z,27.00
2023-04-23T13:55:17.831Z,26.90
2023-04-23T13:57:44.752Z,26.70
2023-04-23T14:00:12.879Z,26.50
2023-04-23T14:02:40.027Z,26.30
2023-04-23T14:05:08.905Z,26.10
2023-04-23T14:07:36.584Z,25.80
2023-04-23T14:10:03.982Z,29.50
2023-04-23T14:12:30.809Z,25.60
2023-04-23T14:14:57.689Z,25.60
2023-04-23T14:17:24.845Z,25.60
2023-04-23T14:19:51.665Z,25.70
2023-04-23T14:22:18.464Z,25.90
2023-04-23T14:24:49.650Z,26.10
2023-04-23T14:27:16.714Z,26.20
2023-04-23T14:29:52.909Z,26.40
2023-04-23T14:32:20.286Z,26.60
2023-04-23T14:34:47.763Z,26.80
2023-04-23T14:37:17.541Z,27.10
2023-04-23T14:39:47.817Z,27.00
2023-04-23T14:42:15.535Z,27.10
2023-04-23T14:44:42.907Z,27.20
2023-04-23T14:47:12.175Z,27.20
2023-04-23T14:49:42.253Z,27.10
2023-04-23T14:52:09.913Z,27.10
2023-04-23T14:54:37.450Z,27.00
2023-04-23T14:57:05.389Z,27.00
2023-04-23T14:59:32.369Z,26.90
2023-04-23T15:02:00.826Z,26.80
2023-04-23T15:04:27.883Z,26.70
2023-04-23T15:06:54.756Z,26.60
2023-04-23T15:09:21.613Z,26.50
2023-04-23T15:11:48.936Z,26.40
2023-04-23T15:14:33.413Z,26.30
2023-04-23T15:17:01.125Z,26.20
2023-04-23T15:19:31.263Z,26.10
2023-04-23T15:21:59.048Z,26.00
2023-04-23T15:24:26.017Z,25.90
2023-04-23T15:26:54.598Z,25.80
2023-04-23T15:29:21.408Z,25.70
2023-04-23T15:31:48.259Z,25.40
2023-04-23T15:34:15.170Z,25.40
2023-04-23T15:36:42.052Z,25.20
2023-04-23T15:39:09.303Z,25.10
2023-04-23T15:41:39.591Z,24.90
2023-04-23T15:44:12.360Z,24.70
2023-04-23T15:46:39.646Z,24.70
2023-04-23T15:49:06.573Z,24.60
2023-04-23T15:51:33.545Z,24.50
2023-04-23T15:54:02.185Z,24.30
2023-04-23T15:56:29.264Z,24.20
2023-04-23T15:58:56.048Z,24.10
2023-04-23T16:01:24.779Z,24.00
2023-04-23T16:04:08.659Z,23.80
2023-04-23T16:06:37.584Z,23.70
2023-04-23T16:09:08.015Z,23.60
2023-04-23T16:11:38.611Z,23.60
2023-04-23T16:14:06.356Z,23.40
2023-04-23T16:16:33.616Z,23.30
2023-04-23T16:19:01.938Z,23.20
2023-04-23T16:21:28.879Z,23.00
2023-04-23T16:23:55.834Z,22.70
2023-04-23T16:26:22.746Z,22.30
2023-04-23T16:36:27.101Z,20.70
2023-04-23T16:48:45.147Z,19.80
2023-04-23T16:51:12.822Z,19.70
2023-04-23T16:56:07.297Z,19.40
2023-04-23T17:03:31.154Z,19.00
2023-04-23T17:06:28.519Z,14.80
2023-04-23T17:09:00.081Z,18.90
2023-04-23T17:11:28.343Z,18.90
2023-04-23T17:13:56.259Z,18.90
2023-04-23T17:16:26.619Z,18.90
2023-04-23T17:21:21.659Z,18.90
2023-04-23T17:23:48.580Z,18.90
2023-04-23T17:36:05.836Z,19.00
2023-04-23T17:53:18.280Z,19.00
2023-04-23T18:00:44.388Z,19.00
2023-04-23T18:05:43.949Z,18.90
2023-04-23T18:08:10.732Z,19.00
2023-04-23T18:15:36.054Z,18.90
2023-04-23T18:30:25.426Z,18.90
2023-04-23T18:33:19.365Z,18.90
2023-04-23T18:35:49.710Z,18.80
2023-04-23T18:38:43.514Z,18.80
2023-04-23T18:48:35.944Z,18.80
2023-04-23T18:51:15.000Z,18.70
2023-04-23T19:03:31.785Z,18.60
2023-04-23T19:10:56.572Z,18.50
2023-04-23T19:15:51.052Z,18.50
2023-04-23T19:30:37.987Z,18.20
2023-04-23T19:33:05.644Z,18.20
2023-04-23T20:02:41.499Z,17.60
2023-04-23T20:05:10.590Z,17.60
2023-04-23T20:07:38.736Z,17.60
2023-04-23T20:20:01.672Z,17.40
2023-04-23T20:22:29.689Z,17.40
2023-04-23T20:24:57.528Z,17.40
2023-04-23T20:29:52.496Z,17.30
2023-04-23T20:32:19.611Z,17.30
2023-04-23T20:42:08.996Z,17.30
2023-04-23T20:47:08.387Z,17.30
2023-04-23T20:59:25.660Z,17.20
2023-04-23T21:09:15.057Z,17.20
2023-04-23T21:19:04.734Z,17.20
2023-04-23T21:24:00.953Z,17.10
2023-04-23T21:26:30.235Z,17.10
2023-04-23T21:28:57.106Z,17.10
2023-04-23T21:31:47.901Z,17.10
2023-04-23T21:34:15.721Z,16.90
2023-04-23T21:36:44.984Z,17.10
2023-04-23T21:41:40.728Z,17.10
2023-04-23T21:44:08.533Z,17.00
2023-04-23T21:46:35.421Z,17.00
2023-04-23T21:53:57.265Z,17.00
2023-04-23T22:01:18.923Z,17.00
2023-04-23T22:03:46.709Z,17.00
2023-04-23T22:06:15.676Z,17.00
2023-04-23T22:28:43.245Z,16.90
2023-04-23T22:36:05.471Z,16.80
2023-04-23T22:38:32.879Z,16.80
2023-04-23T22:48:22.085Z,16.60
2023-04-23T22:50:51.085Z,16.60
2023-04-23T22:53:19.419Z,16.60
2023-04-23T22:55:46.774Z,16.60
2023-04-23T22:58:13.621Z,16.60
2023-04-23T23:20:20.860Z,16.40
2023-04-23T23:27:43.058Z,16.40
2023-04-23T23:42:27.902Z,16.40
2023-04-23T23:54:44.088Z,16.40
